createdAt,value
2017-07-28T00:01:59.818Z,10.47
2017-07-28T00:04:27.210Z,10.33
2017-07-28T00:06:54.612Z,10.20
2017-07-28T00:09:22.011Z,10.00
2017-07-28T00:11:49.408Z,10.57
2017-07-28T00:14:16.823Z,10.20
2017-07-28T00:16:44.218Z,10.13
2017-07-28T00:19:11.610Z,10.70
2017-07-28T00:21:39.015Z,9.60
2017-07-28T00:24:06.410Z,10.33
2017-07-28T00:26:33.795Z,9.87
2017-07-28T00:29:01.290Z,9.60
2017-07-28T00:31:28.674Z,9.40
2017-07-28T00:33:56.071Z,10.13
2017-07-28T00:36:24.391Z,9.40
2017-07-28T00:38:51.784Z,11.30
2017-07-28T00:41:19.187Z,10.47
2017-07-28T00:43:47.067Z,8.93
2017-07-28T00:46:14.459Z,10.00
2017-07-28T00:48:41.846Z,9.83
2017-07-28T00:51:09.547Z,9.70
2017-07-28T00:53:36.938Z,10.27
2017-07-28T00:56:04.339Z,10.30
2017-07-28T00:58:31.771Z,9.80
2017-07-28T01:00:59.163Z,9.57
2017-07-28T01:03:26.550Z,9.80
2017-07-28T01:05:54.294Z,9.93
2017-07-28T01:08:21.681Z,9.67
2017-07-28T01:10:49.082Z,10.20
2017-07-28T01:13:16.638Z,10.10
2017-07-28T01:15:44.030Z,10.03
2017-07-28T01:18:11.414Z,9.13
2017-07-28T01:20:38.959Z,9.67
2017-07-28T01:23:06.346Z,8.77
2017-07-28T01:25:33.734Z,10.47
2017-07-28T01:28:01.134Z,9.27
2017-07-28T01:30:28.527Z,9.80
2017-07-28T01:32:55.910Z,9.73
2017-07-28T01:35:23.454Z,9.73
2017-07-28T01:37:50.834Z,9.57
2017-07-28T01:40:18.222Z,9.70
2017-07-28T01:42:45.774Z,10.13
2017-07-28T01:45:13.164Z,9.83
2017-07-28T01:47:40.555Z,10.00
2017-07-28T01:50:08.323Z,10.17
2017-07-28T01:52:35.711Z,9.60
2017-07-28T01:55:03.099Z,9.90
2017-07-28T01:57:30.539Z,10.30
2017-07-28T01:59:57.927Z,9.97
2017-07-28T02:02:25.327Z,9.90
2017-07-28T02:04:52.862Z,9.27
2017-07-28T02:07:20.258Z,9.70
2017-07-28T02:09:47.655Z,10.07
2017-07-28T02:12:15.439Z,10.00
2017-07-28T02:14:42.824Z,9.30
2017-07-28T02:17:10.213Z,9.93
2017-07-28T02:19:37.816Z,9.77
2017-07-28T02:22:05.211Z,10.07
2017-07-28T02:24:32.598Z,9.40
2017-07-28T02:27:00.034Z,9.33
2017-07-28T02:29:27.422Z,9.40
2017-07-28T02:31:54.811Z,10.13
2017-07-28T02:34:22.227Z,9.40
2017-07-28T02:36:49.614Z,9.90
2017-07-28T02:39:17.002Z,8.77
2017-07-28T02:41:44.622Z,9.10
2017-07-28T02:44:12.018Z,8.50
2017-07-28T02:46:39.419Z,9.00
2017-07-28T02:49:07.305Z,9.53
2017-07-28T02:51:34.694Z,8.90
2017-07-28T02:54:02.078Z,9.83
2017-07-28T02:56:29.479Z,8.80
2017-07-28T02:58:56.862Z,9.87
2017-07-28T03:01:24.251Z,9.10
2017-07-28T03:03:51.790Z,9.03
2017-07-28T03:06:19.183Z,9.23
2017-07-28T03:08:46.563Z,9.10
2017-07-28T03:11:14.223Z,9.10
2017-07-28T03:13:41.614Z,10.07
2017-07-28T03:16:09.003Z,8.93
2017-07-28T03:18:36.440Z,9.90
2017-07-28T03:21:03.832Z,9.17
2017-07-28T03:23:31.215Z,10.03
2017-07-28T03:25:58.659Z,8.70
2017-07-28T03:28:26.071Z,9.10
2017-07-28T03:30:53.459Z,9.47
2017-07-28T03:33:20.879Z,10.60
2017-07-28T03:35:48.266Z,9.30
2017-07-28T03:38:15.652Z,8.57
2017-07-28T03:40:43.193Z,10.20
2017-07-28T03:43:10.606Z,9.70
2017-07-28T03:45:37.997Z,9.27
2017-07-28T03:48:05.562Z,8.90
2017-07-28T03:50:32.958Z,9.10
2017-07-28T03:53:00.356Z,8.53
2017-07-28T03:55:27.851Z,9.03
2017-07-28T03:57:55.238Z,8.37
2017-07-28T04:00:22.626Z,8.60
2017-07-28T04:02:50.043Z,8.70
2017-07-28T04:05:17.432Z,9.10
2017-07-28T04:07:44.818Z,8.57
2017-07-28T04:10:12.227Z,8.37
2017-07-28T04:12:39.623Z,7.90
2017-07-28T04:15:07.010Z,8.70
2017-07-28T04:17:34.546Z,7.97
2017-07-28T04:20:01.940Z,8.70
2017-07-28T04:22:29.332Z,9.00
2017-07-28T04:24:56.877Z,8.10
2017-07-28T04:27:24.258Z,8.67
2017-07-28T04:29:51.652Z,8.47
2017-07-28T04:32:19.148Z,8.30
2017-07-28T04:34:46.526Z,7.80
2017-07-28T04:37:13.922Z,7.80
2017-07-28T04:39:41.318Z,8.10
2017-07-28T04:42:08.706Z,8.37
2017-07-28T04:44:36.095Z,9.90
2017-07-28T04:47:03.842Z,7.60
2017-07-28T04:49:31.205Z,9.03
2017-07-28T04:51:58.610Z,8.50
2017-07-28T04:54:26.139Z,7.83
2017-07-28T04:56:53.538Z,8.43
2017-07-28T04:59:20.931Z,8.77
2017-07-28T05:01:48.351Z,9.00
2017-07-28T05:04:15.735Z,9.40
2017-07-28T05:06:43.126Z,8.00
2017-07-28T05:09:10.581Z,8.00
2017-07-28T05:11:37.968Z,8.40
2017-07-28T05:14:05.350Z,7.70
2017-07-28T05:16:32.846Z,8.33
2017-07-28T05:19:00.233Z,7.30
2017-07-28T05:21:27.614Z,7.13
2017-07-28T05:23:55.378Z,6.90
2017-07-28T05:26:22.757Z,7.40
2017-07-28T05:28:50.184Z,8.23
2017-07-28T05:31:18.463Z,7.97
2017-07-28T05:33:45.944Z,7.83
2017-07-28T05:36:13.372Z,8.40
2017-07-28T05:38:40.897Z,8.00
2017-07-28T05:41:08.336Z,7.93
2017-07-28T05:43:35.730Z,8.43
2017-07-28T05:46:03.327Z,8.60
2017-07-28T05:48:30.746Z,8.90
2017-07-28T05:50:58.169Z,8.20
2017-07-28T05:53:25.777Z,7.90
2017-07-28T05:55:53.182Z,7.90
2017-07-28T05:58:21.762Z,8.10
2017-07-28T06:00:49.422Z,7.30
2017-07-28T06:03:18.214Z,8.03
2017-07-28T06:08:39.734Z,8.30
2017-07-28T06:11:07.590Z,8.87
2017-07-28T06:13:35.027Z,8.13
2017-07-28T06:16:02.462Z,7.87
2017-07-28T06:18:29.959Z,7.97
2017-07-28T06:20:57.376Z,8.50
2017-07-28T06:23:24.790Z,9.47
2017-07-28T06:25:53.217Z,8.53
2017-07-28T06:28:20.694Z,9.07
2017-07-28T06:30:49.710Z,7.47
2017-07-28T06:33:19.686Z,7.90
2017-07-28T06:35:47.155Z,8.80
2017-07-28T06:38:14.654Z,8.50
2017-07-28T06:40:42.222Z,7.60
2017-07-28T06:43:09.648Z,7.63
2017-07-28T06:45:37.026Z,8.10
2017-07-28T06:48:04.787Z,7.90
2017-07-28T06:50:32.230Z,8.03
2017-07-28T06:52:59.630Z,7.30
2017-07-28T06:55:27.251Z,7.43
2017-07-28T06:57:55.190Z,7.17
2017-07-28T07:00:22.600Z,8.10
2017-07-28T07:02:50.172Z,8.20
2017-07-28T07:05:17.592Z,8.80
2017-07-28T07:07:45.016Z,7.50
2017-07-28T07:10:12.636Z,8.47
2017-07-28T07:12:41.015Z,7.90
2017-07-28T07:15:09.358Z,7.77
2017-07-28T07:17:36.927Z,7.30
2017-07-28T07:20:04.354Z,7.50
2017-07-28T07:22:31.762Z,7.87
2017-07-28T07:24:59.277Z,7.50
2017-07-28T07:27:26.698Z,8.20
2017-07-28T07:29:54.123Z,8.20
2017-07-28T07:32:21.542Z,7.87
2017-07-28T07:34:48.976Z,8.93
2017-07-28T07:37:16.374Z,9.40
2017-07-28T07:39:43.997Z,8.53
2017-07-28T07:42:11.382Z,8.67
2017-07-28T07:44:38.846Z,8.83
2017-07-28T07:47:06.348Z,7.90
2017-07-28T07:49:33.834Z,8.13
2017-07-28T07:52:01.241Z,8.47
2017-07-28T07:54:28.686Z,7.60
2017-07-28T07:56:56.161Z,7.40
2017-07-28T07:59:23.579Z,8.07
2017-07-28T08:01:51.070Z,8.33
2017-07-28T08:04:18.467Z,7.80
2017-07-28T08:06:45.927Z,8.50
2017-07-28T08:09:13.541Z,8.87
2017-07-28T08:11:40.961Z,8.60
2017-07-28T08:14:08.799Z,8.30
2017-07-28T08:16:36.874Z,7.33
2017-07-28T08:19:04.306Z,7.20
2017-07-28T08:21:31.712Z,7.40
2017-07-28T08:23:59.681Z,7.10
2017-07-28T08:26:27.070Z,8.10
2017-07-28T08:28:54.505Z,7.83
2017-07-28T08:31:32.191Z,7.00
2017-07-28T08:33:59.638Z,7.30
2017-07-28T08:36:27.042Z,7.43
2017-07-28T08:38:54.558Z,8.40
2017-07-28T08:41:21.967Z,7.47
2017-07-28T08:43:49.388Z,7.33
2017-07-28T08:46:16.887Z,7.30
2017-07-28T08:48:44.310Z,7.20
2017-07-28T08:51:11.722Z,7.50
2017-07-28T08:53:39.229Z,7.63
2017-07-28T08:56:06.628Z,6.80
2017-07-28T08:58:34.512Z,7.27
2017-07-28T09:01:02.318Z,6.97
2017-07-28T09:03:29.749Z,7.20
2017-07-28T09:06:05.204Z,7.40
2017-07-28T09:08:32.591Z,6.90
2017-07-28T09:11:00.005Z,7.20
2017-07-28T09:13:27.565Z,7.60
2017-07-28T09:15:55.039Z,6.53
2017-07-28T09:18:22.529Z,7.17
2017-07-28T09:20:49.962Z,7.47
2017-07-28T09:23:17.424Z,7.20
2017-07-28T09:25:44.831Z,6.57
2017-07-28T09:28:12.255Z,7.03
2017-07-28T09:30:39.686Z,6.77
2017-07-28T09:33:07.095Z,7.17
2017-07-28T09:35:34.519Z,6.50
2017-07-28T09:38:01.924Z,6.73
2017-07-28T09:40:29.313Z,7.37
2017-07-28T09:42:56.758Z,6.63
2017-07-28T09:45:24.194Z,6.40
2017-07-28T09:47:51.589Z,6.53
2017-07-28T09:50:19.173Z,6.13
2017-07-28T09:52:46.566Z,6.00
2017-07-28T09:55:14.046Z,7.43
2017-07-28T09:57:41.510Z,6.90
2017-07-28T10:00:08.934Z,6.80
2017-07-28T10:02:36.383Z,7.07
2017-07-28T10:05:04.111Z,6.73
2017-07-28T10:07:31.506Z,7.20
2017-07-28T10:09:58.938Z,7.10
2017-07-28T10:12:26.735Z,7.20
2017-07-28T10:15:05.181Z,7.70
2017-07-28T10:17:32.713Z,6.63
2017-07-28T10:20:00.134Z,7.60
2017-07-28T10:22:27.535Z,7.60
2017-07-28T10:24:55.106Z,7.57
2017-07-28T10:27:22.510Z,7.87
2017-07-28T10:29:49.947Z,6.43
2017-07-28T10:32:17.358Z,7.30
2017-07-28T10:34:45.730Z,8.07
2017-07-28T10:37:13.135Z,6.47
2017-07-28T10:39:41.752Z,7.67
2017-07-28T10:42:09.198Z,7.30
2017-07-28T10:44:36.577Z,7.50
2017-07-28T10:47:03.992Z,8.00
2017-07-28T10:49:31.431Z,8.20
2017-07-28T10:51:58.812Z,8.63
2017-07-28T10:54:26.321Z,7.20
2017-07-28T10:56:53.734Z,7.47
2017-07-28T10:59:21.138Z,7.20
2017-07-28T11:01:49.024Z,8.57
2017-07-28T11:04:16.413Z,8.23
2017-07-28T11:06:43.851Z,8.20
2017-07-28T11:09:11.319Z,7.60
2017-07-28T11:11:38.720Z,8.13
2017-07-28T11:14:06.145Z,7.50
2017-07-28T11:16:33.670Z,7.80
2017-07-28T11:19:01.112Z,7.47
2017-07-28T11:21:28.514Z,7.50
2017-07-28T11:23:55.934Z,7.40
2017-07-28T11:26:23.326Z,7.13
2017-07-28T11:28:50.730Z,6.93
2017-07-28T11:31:18.657Z,7.50
2017-07-28T11:33:46.050Z,6.27
2017-07-28T11:36:13.445Z,7.60
2017-07-28T11:38:41.000Z,7.70
2017-07-28T11:41:08.418Z,6.90
2017-07-28T11:43:35.833Z,6.80
2017-07-28T11:46:03.274Z,6.23
2017-07-28T11:48:30.678Z,5.80
2017-07-28T11:50:58.137Z,6.20
2017-07-28T11:53:25.883Z,6.37
2017-07-28T11:55:53.270Z,6.77
2017-07-28T11:58:20.674Z,7.40
2017-07-28T12:00:48.207Z,7.30
2017-07-28T12:03:15.604Z,7.40
2017-07-28T12:05:43.907Z,7.60
2017-07-28T12:08:11.331Z,7.40
2017-07-28T12:10:38.757Z,6.73
2017-07-28T12:13:06.165Z,8.27
2017-07-28T12:15:33.731Z,8.30
2017-07-28T12:18:01.137Z,8.13
2017-07-28T12:20:28.532Z,7.10
2017-07-28T12:22:56.109Z,7.33
2017-07-28T12:25:24.486Z,7.80
2017-07-28T12:27:51.982Z,7.70
2017-07-28T12:30:19.495Z,7.00
2017-07-28T12:32:46.926Z,8.07
2017-07-28T12:35:14.333Z,7.40
2017-07-28T12:37:41.822Z,7.83
2017-07-28T12:40:10.176Z,7.33
2017-07-28T12:42:37.775Z,7.30
2017-07-28T12:45:05.463Z,7.50
2017-07-28T12:47:33.001Z,8.20
2017-07-28T12:50:00.411Z,8.07
2017-07-28T12:52:27.921Z,7.80
2017-07-28T12:54:55.394Z,7.33
2017-07-28T12:57:22.780Z,7.40
2017-07-28T12:59:50.327Z,7.80
2017-07-28T13:02:17.716Z,7.77
2017-07-28T13:04:45.111Z,7.33
2017-07-28T13:07:12.619Z,8.70
2017-07-28T13:09:40.079Z,8.07
2017-07-28T13:12:07.509Z,8.23
2017-07-28T13:14:34.968Z,8.27
2017-07-28T13:17:02.397Z,8.47
2017-07-28T13:19:29.894Z,8.30
2017-07-28T13:21:57.396Z,8.57
2017-07-28T13:24:24.792Z,8.10
2017-07-28T13:26:52.314Z,7.50
2017-07-28T13:29:19.863Z,7.70
2017-07-28T13:31:47.251Z,8.57
2017-07-28T13:34:14.730Z,8.10
2017-07-28T13:36:42.614Z,8.67
2017-07-28T13:39:10.063Z,8.07
2017-07-28T13:41:37.470Z,8.73
2017-07-28T13:44:05.374Z,8.40
2017-07-28T13:46:38.448Z,8.20
2017-07-28T13:49:05.879Z,8.10
2017-07-28T13:51:33.305Z,8.17
2017-07-28T13:54:00.687Z,8.43
2017-07-28T13:56:28.267Z,8.10
2017-07-28T13:58:55.659Z,8.13
2017-07-28T14:01:23.087Z,8.30
2017-07-28T14:03:50.729Z,7.60
2017-07-28T14:06:18.155Z,8.40
2017-07-28T14:08:45.597Z,8.80
2017-07-28T14:11:13.040Z,8.40
2017-07-28T14:13:40.435Z,7.93
2017-07-28T14:16:07.875Z,8.20
2017-07-28T14:18:35.406Z,7.50
2017-07-28T14:21:02.795Z,7.77
2017-07-28T14:23:30.208Z,8.00
2017-07-28T14:25:57.754Z,7.40
2017-07-28T14:28:25.204Z,7.60
2017-07-28T14:30:52.712Z,7.70
2017-07-28T14:33:20.254Z,8.60
2017-07-28T14:35:47.642Z,7.70
2017-07-28T14:38:15.030Z,8.30
2017-07-28T14:40:42.671Z,8.13
2017-07-28T14:43:10.068Z,7.80
2017-07-28T14:45:37.500Z,7.37
2017-07-28T14:48:06.144Z,6.73
2017-07-28T14:50:33.583Z,8.43
2017-07-28T14:53:00.955Z,8.03
2017-07-28T14:55:28.439Z,8.03
2017-07-28T14:57:55.891Z,7.50
2017-07-28T15:00:23.329Z,7.40
2017-07-28T15:02:50.899Z,7.57
2017-07-28T15:05:18.303Z,7.60
2017-07-28T15:07:45.715Z,7.50
2017-07-28T15:10:13.514Z,7.20
2017-07-28T15:12:40.937Z,9.20
2017-07-28T15:15:08.367Z,6.90
2017-07-28T15:17:35.968Z,8.87
2017-07-28T15:20:03.383Z,7.77
2017-07-28T15:22:30.802Z,9.20
2017-07-28T15:25:02.399Z,7.60
2017-07-28T15:27:29.797Z,7.67
2017-07-28T15:29:57.208Z,7.37
2017-07-28T15:32:25.142Z,7.70
2017-07-28T15:34:52.685Z,7.53
2017-07-28T15:37:20.118Z,8.43
2017-07-28T15:39:47.726Z,7.23
2017-07-28T15:42:15.105Z,7.03
2017-07-28T15:44:42.515Z,8.13
2017-07-28T15:47:10.125Z,7.60
2017-07-28T15:49:37.527Z,7.77
2017-07-28T15:52:04.954Z,7.43
2017-07-28T15:54:32.522Z,7.97
2017-07-28T15:56:59.954Z,7.27
2017-07-28T15:59:27.375Z,8.13
2017-07-28T16:01:54.886Z,8.47
2017-07-28T16:04:22.286Z,7.77
2017-07-28T16:06:49.711Z,8.97
2017-07-28T16:09:17.162Z,8.30
2017-07-28T16:11:44.572Z,8.30
2017-07-28T16:14:11.983Z,7.00
2017-07-28T16:16:39.775Z,7.80
2017-07-28T16:19:07.180Z,8.03
2017-07-28T16:21:34.651Z,7.10
2017-07-28T16:24:02.176Z,7.07
2017-07-28T16:26:31.538Z,7.73
2017-07-28T16:28:58.942Z,7.00
2017-07-28T16:31:26.748Z,7.60
2017-07-28T16:33:54.139Z,7.00
2017-07-28T16:36:21.561Z,7.60
2017-07-28T16:38:48.978Z,7.60
2017-07-28T16:41:16.391Z,7.00
2017-07-28T16:43:43.829Z,7.43
2017-07-28T16:46:11.954Z,7.23
2017-07-28T16:48:39.386Z,7.10
2017-07-28T16:51:06.786Z,6.93
2017-07-28T16:53:34.410Z,7.37
2017-07-28T16:56:01.852Z,7.00
2017-07-28T16:58:29.334Z,7.80
2017-07-28T17:00:57.058Z,7.40
2017-07-28T17:03:25.640Z,7.70
2017-07-28T17:05:53.047Z,7.13
2017-07-28T17:08:20.447Z,7.03
2017-07-28T17:10:47.846Z,6.90
2017-07-28T17:13:17.001Z,7.30
2017-07-28T17:15:44.468Z,7.13
2017-07-28T17:18:11.851Z,6.63
2017-07-28T17:20:39.277Z,6.40
2017-07-28T17:23:06.810Z,7.27
2017-07-28T17:25:34.233Z,7.03
2017-07-28T17:28:01.628Z,6.17
2017-07-28T17:30:29.428Z,7.50
2017-07-28T17:32:56.811Z,7.47
2017-07-28T17:35:24.282Z,6.60
2017-07-28T17:37:51.699Z,7.17
2017-07-28T17:40:19.114Z,6.60
2017-07-28T17:42:53.384Z,7.30
2017-07-28T17:45:20.793Z,7.27
2017-07-28T17:47:48.203Z,6.87
2017-07-28T17:50:16.030Z,7.30
2017-07-28T17:52:43.494Z,7.20
2017-07-28T17:55:10.873Z,6.83
2017-07-28T17:57:38.684Z,6.80
2017-07-28T18:00:06.259Z,6.43
2017-07-28T18:02:33.689Z,7.17
2017-07-28T18:05:01.476Z,7.27
2017-07-28T18:07:28.890Z,6.77
2017-07-28T18:09:56.279Z,6.87
2017-07-28T18:12:23.947Z,6.40
2017-07-28T18:14:51.374Z,7.13
2017-07-28T18:17:18.774Z,7.10
2017-07-28T18:19:46.328Z,6.77
2017-07-28T18:22:13.720Z,7.00
2017-07-28T18:24:41.214Z,6.67
2017-07-28T18:27:08.649Z,7.40
2017-07-28T18:29:36.038Z,6.57
2017-07-28T18:32:03.458Z,6.60
2017-07-28T18:34:31.013Z,6.47
2017-07-28T18:36:58.430Z,7.13
2017-07-28T18:39:25.977Z,6.20
2017-07-28T18:41:53.653Z,6.40
2017-07-28T18:44:21.324Z,6.93
2017-07-28T18:46:48.845Z,7.00
2017-07-28T18:49:16.823Z,6.80
2017-07-28T18:51:44.274Z,7.03
2017-07-28T18:54:11.764Z,6.50
2017-07-28T18:56:39.283Z,6.30
2017-07-28T18:59:06.708Z,7.13
2017-07-28T19:01:34.139Z,6.77
2017-07-28T19:04:01.542Z,6.80
2017-07-28T19:06:28.961Z,6.93
2017-07-28T19:08:56.359Z,6.73
2017-07-28T19:11:23.864Z,7.03
2017-07-28T19:13:51.306Z,7.33
2017-07-28T19:16:18.698Z,7.00
2017-07-28T19:18:46.365Z,7.30
2017-07-28T19:21:13.787Z,7.07
2017-07-28T19:23:41.199Z,6.40
2017-07-28T19:26:08.852Z,7.20
2017-07-28T19:28:36.301Z,7.73
2017-07-28T19:31:03.679Z,7.80
2017-07-28T19:33:31.214Z,7.73
2017-07-28T19:35:58.633Z,7.50
2017-07-28T19:38:26.088Z,7.57
2017-07-28T19:40:53.531Z,8.67
2017-07-28T19:43:20.958Z,7.43
2017-07-28T19:45:48.389Z,8.00
2017-07-28T19:48:19.218Z,8.70
2017-07-28T19:50:46.666Z,8.07
2017-07-28T19:53:14.054Z,7.73
2017-07-28T19:55:41.627Z,8.47
2017-07-28T19:58:09.040Z,7.87
2017-07-28T20:00:36.483Z,7.60
2017-07-28T20:03:04.952Z,8.70
2017-07-28T20:05:33.483Z,8.60
2017-07-28T20:08:01.608Z,7.93
2017-07-28T20:10:29.397Z,8.87
2017-07-28T20:12:56.790Z,9.50
2017-07-28T20:15:24.332Z,9.03
2017-07-28T20:17:51.902Z,9.23
2017-07-28T20:20:19.325Z,8.20
2017-07-28T20:22:46.794Z,8.57
2017-07-28T20:25:14.382Z,8.27
2017-07-28T20:27:42.506Z,8.87
2017-07-28T20:30:09.908Z,9.17
2017-07-28T20:32:37.705Z,9.27
2017-07-28T20:35:05.123Z,9.27
2017-07-28T20:37:32.548Z,9.80
2017-07-28T20:40:00.313Z,9.07
2017-07-28T20:42:27.743Z,10.07
2017-07-28T20:44:55.936Z,9.40
2017-07-28T20:47:23.378Z,9.57
2017-07-28T20:49:50.766Z,10.30
2017-07-28T20:52:18.183Z,9.70
2017-07-28T20:54:45.599Z,11.37
2017-07-28T20:57:13.391Z,10.23
2017-07-28T20:59:40.827Z,10.07
2017-07-28T21:02:08.564Z,10.03
2017-07-28T21:04:35.986Z,11.13
2017-07-28T21:07:03.426Z,10.53
2017-07-28T21:09:30.992Z,10.87
2017-07-28T21:11:59.491Z,11.30
2017-07-28T21:14:27.637Z,11.70
2017-07-28T21:16:55.130Z,11.00
2017-07-28T21:19:22.575Z,11.37
2017-07-28T21:21:49.983Z,10.70
2017-07-28T21:24:17.439Z,11.90
2017-07-28T21:26:44.838Z,11.50
2017-07-28T21:29:12.287Z,11.10
2017-07-28T21:31:39.855Z,10.80
2017-07-28T21:34:07.282Z,11.63
2017-07-28T21:36:34.812Z,11.13
2017-07-28T21:39:02.386Z,11.67
2017-07-28T21:41:29.828Z,11.97
2017-07-28T21:43:57.252Z,11.60
2017-07-28T21:46:24.883Z,11.37
2017-07-28T21:48:52.321Z,12.23
2017-07-28T21:51:19.750Z,11.30
2017-07-28T21:53:47.304Z,11.10
2017-07-28T21:56:14.707Z,12.80
2017-07-28T21:58:42.107Z,12.50
2017-07-28T22:01:09.672Z,10.90
2017-07-28T22:03:37.084Z,11.80
2017-07-28T22:06:04.521Z,11.80
2017-07-28T22:08:31.971Z,11.23
2017-07-28T22:10:59.382Z,11.00
2017-07-28T22:13:26.777Z,12.27
2017-07-28T22:15:54.200Z,10.70
2017-07-28T22:18:21.622Z,11.43
2017-07-28T22:20:49.062Z,11.53
2017-07-28T22:23:16.578Z,11.50
2017-07-28T22:25:43.979Z,11.47
2017-07-28T22:28:11.414Z,10.87
2017-07-28T22:30:38.873Z,12.00
2017-07-28T22:33:06.307Z,11.23
2017-07-28T22:35:33.704Z,11.80
2017-07-28T22:38:01.177Z,11.27
2017-07-28T22:40:28.582Z,10.90
2017-07-28T22:42:55.978Z,11.33
2017-07-28T22:45:23.630Z,11.80
2017-07-28T22:47:51.080Z,11.30
2017-07-28T22:50:18.514Z,9.70
2017-07-28T22:52:46.073Z,11.00
2017-07-28T22:55:13.474Z,11.37
2017-07-28T22:57:40.871Z,11.53
2017-07-28T23:00:08.447Z,11.00
2017-07-28T23:02:35.862Z,10.20
2017-07-28T23:05:03.262Z,11.07
2017-07-28T23:07:30.793Z,10.87
2017-07-28T23:09:58.193Z,11.60
2017-07-28T23:12:25.659Z,11.73
2017-07-28T23:14:53.528Z,11.23
2017-07-28T23:17:20.939Z,11.40
2017-07-28T23:19:48.363Z,10.90
2017-07-28T23:22:15.798Z,10.90
2017-07-28T23:24:43.226Z,12.40
2017-07-28T23:27:10.647Z,11.90
2017-07-28T23:29:38.478Z,11.30
2017-07-28T23:32:05.923Z,11.80
2017-07-28T23:34:33.327Z,12.10
2017-07-28T23:37:00.937Z,13.23
2017-07-28T23:39:28.372Z,11.57
2017-07-28T23:41:55.754Z,11.00
2017-07-28T23:44:23.475Z,11.47
2017-07-28T23:46:50.903Z,11.97
2017-07-28T23:49:18.316Z,11.07
2017-07-28T23:51:45.862Z,11.83
2017-07-28T23:54:13.265Z,11.60
2017-07-28T23:56:40.678Z,12.30
2017-07-28T23:59:08.109Z,11.20
